sensor_id;sensor_type;location;lat;lon;timestamp;P1;durP1;ratioP1;P2;durP2;ratioP2
75645;SDS011;64237;52.438;13.240;2023-04-25T00:00:42;3.30;;;1.25;;
75645;SDS011;64237;52.438;13.240;2023-04-25T00:03:19;1.92;;;1.30;;
75645;SDS011;64237;52.438;13.240;2023-04-25T00:05:46;1.92;;;1.10;;
75645;SDS011;64237;52.438;13.240;2023-04-25T00:08:11;2.25;;;1.10;;
75645;SDS011;64237;52.438;13.240;2023-04-25T00:10:40;14.32;;;1.65;;
75645;SDS011;64237;52.438;13.240;2023-04-25T00:13:08;2.45;;;1.20;;
75645;SDS011;64237;52.438;13.240;2023-04-25T00:15:34;2.90;;;1.20;;
75645;SDS011;64237;52.438;13.240;2023-04-25T00:18:03;3.67;;;1.30;;
75645;SDS011;64237;52.438;13.240;2023-04-25T00:20:30;4.97;;;1.30;;
75645;SDS011;64237;52.438;13.240;2023-04-25T00:23:11;6.03;;;1.57;;
75645;SDS011;64237;52.438;13.240;2023-04-25T00:25:46;6.60;;;1.42;;
75645;SDS011;64237;52.438;13.240;2023-04-25T00:28:21;5.93;;;1.40;;
75645;SDS011;64237;52.438;13.240;2023-04-25T00:30:53;3.90;;;1.30;;
75645;SDS011;64237;52.438;13.240;2023-04-25T00:33:21;4.82;;;1.50;;
75645;SDS011;64237;52.438;13.240;2023-04-25T00:35:46;6.28;;;1.45;;
75645;SDS011;64237;52.438;13.240;2023-04-25T00:38:18;4.30;;;1.52;;
75645;SDS011;64237;52.438;13.240;2023-04-25T00:40:46;4.93;;;1.55;;
75645;SDS011;64237;52.438;13.240;2023-04-25T00:43:18;3.30;;;1.50;;
75645;SDS011;64237;52.438;13.240;2023-04-25T00:45:43;3.38;;;1.40;;
75645;SDS011;64237;52.438;13.240;2023-04-25T00:48:17;5.60;;;1.80;;
75645;SDS011;64237;52.438;13.240;2023-04-25T00:50:49;5.40;;;1.52;;
75645;SDS011;64237;52.438;13.240;2023-04-25T00:53:17;7.75;;;1.75;;
75645;SDS011;64237;52.438;13.240;2023-04-25T00:55:46;7.90;;;1.77;;
75645;SDS011;64237;52.438;13.240;2023-04-25T00:58:15;3.63;;;1.40;;
75645;SDS011;64237;52.438;13.240;2023-04-25T01:00:40;5.72;;;1.92;;
75645;SDS011;64237;52.438;13.240;2023-04-25T01:03:06;6.20;;;1.60;;
75645;SDS011;64237;52.438;13.240;2023-04-25T01:05:34;6.65;;;1.73;;
75645;SDS011;64237;52.438;13.240;2023-04-25T01:08:03;4.60;;;1.50;;
75645;SDS011;64237;52.438;13.240;2023-04-25T01:10:28;4.32;;;1.52;;
75645;SDS011;64237;52.438;13.240;2023-04-25T01:12:53;6.75;;;1.60;;
75645;SDS011;64237;52.438;13.240;2023-04-25T01:15:22;4.20;;;1.77;;
75645;SDS011;64237;52.438;13.240;2023-04-25T01:17:47;8.82;;;1.73;;
75645;SDS011;64237;52.438;13.240;2023-04-25T01:20:14;5.57;;;1.85;;
75645;SDS011;64237;52.438;13.240;2023-04-25T01:22:43;6.38;;;1.55;;
75645;SDS011;64237;52.438;13.240;2023-04-25T01:25:15;6.28;;;1.73;;
75645;SDS011;64237;52.438;13.240;2023-04-25T01:27:45;6.00;;;1.85;;
75645;SDS011;64237;52.438;13.240;2023-04-25T01:30:10;6.35;;;1.75;;
75645;SDS011;64237;52.438;13.240;2023-04-25T01:32:42;8.52;;;1.60;;
75645;SDS011;64237;52.438;13.240;2023-04-25T01:35:17;4.80;;;1.42;;
75645;SDS011;64237;52.438;13.240;2023-04-25T01:37:48;5.85;;;1.67;;
75645;SDS011;64237;52.438;13.240;2023-04-25T01:40:21;3.55;;;1.58;;
75645;SDS011;64237;52.438;13.240;2023-04-25T01:42:54;5.75;;;1.90;;
75645;SDS011;64237;52.438;13.240;2023-04-25T01:45:19;6.53;;;1.52;;
75645;SDS011;64237;52.438;13.240;2023-04-25T01:47:45;6.03;;;1.60;;
75645;SDS011;64237;52.438;13.240;2023-04-25T01:50:14;9.77;;;1.90;;
75645;SDS011;64237;52.438;13.240;2023-04-25T01:52:49;6.32;;;1.95;;
75645;SDS011;64237;52.438;13.240;2023-04-25T01:55:18;6.85;;;1.75;;
75645;SDS011;64237;52.438;13.240;2023-04-25T01:57:46;4.85;;;1.60;;
75645;SDS011;64237;52.438;13.240;2023-04-25T02:00:12;5.75;;;2.00;;
75645;SDS011;64237;52.438;13.240;2023-04-25T02:02:37;6.75;;;1.52;;
75645;SDS011;64237;52.438;13.240;2023-04-25T02:05:03;6.97;;;1.87;;
75645;SDS011;64237;52.438;13.240;2023-04-25T02:07:31;10.73;;;1.90;;
75645;SDS011;64237;52.438;13.240;2023-04-25T02:09:59;6.97;;;2.08;;
75645;SDS011;64237;52.438;13.240;2023-04-25T02:12:25;8.63;;;2.17;;
75645;SDS011;64237;52.438;13.240;2023-04-25T02:14:54;7.28;;;1.98;;
75645;SDS011;64237;52.438;13.240;2023-04-25T02:17:22;7.40;;;2.20;;
75645;SDS011;64237;52.438;13.240;2023-04-25T02:19:48;4.82;;;1.80;;
75645;SDS011;64237;52.438;13.240;2023-04-25T02:22:22;3.97;;;1.38;;
75645;SDS011;64237;52.438;13.240;2023-04-25T02:24:47;6.65;;;2.03;;
75645;SDS011;64237;52.438;13.240;2023-04-25T02:27:31;6.13;;;2.00;;
75645;SDS011;64237;52.438;13.240;2023-04-25T02:29:59;6.90;;;1.88;;
75645;SDS011;64237;52.438;13.240;2023-04-25T02:32:28;6.40;;;2.30;;
75645;SDS011;64237;52.438;13.240;2023-04-25T02:34:53;6.78;;;2.03;;
75645;SDS011;64237;52.438;13.240;2023-04-25T02:37:22;4.45;;;1.80;;
75645;SDS011;64237;52.438;13.240;2023-04-25T02:39:50;8.63;;;1.90;;
75645;SDS011;64237;52.438;13.240;2023-04-25T02:42:18;8.77;;;2.15;;
75645;SDS011;64237;52.438;13.240;2023-04-25T02:44:50;5.63;;;1.52;;
75645;SDS011;64237;52.438;13.240;2023-04-25T02:47:21;5.82;;;1.80;;
75645;SDS011;64237;52.438;13.240;2023-04-25T02:49:50;7.72;;;1.90;;
75645;SDS011;64237;52.438;13.240;2023-04-25T02:52:15;5.53;;;2.00;;
75645;SDS011;64237;52.438;13.240;2023-04-25T02:54:41;9.02;;;2.13;;
75645;SDS011;64237;52.438;13.240;2023-04-25T02:57:06;8.75;;;2.40;;
75645;SDS011;64237;52.438;13.240;2023-04-25T02:59:35;8.18;;;2.65;;
75645;SDS011;64237;52.438;13.240;2023-04-25T03:02:00;5.63;;;2.22;;
75645;SDS011;64237;52.438;13.240;2023-04-25T03:04:26;7.10;;;2.03;;
75645;SDS011;64237;52.438;13.240;2023-04-25T03:06:51;8.23;;;2.20;;
75645;SDS011;64237;52.438;13.240;2023-04-25T03:09:23;6.25;;;2.53;;
75645;SDS011;64237;52.438;13.240;2023-04-25T03:11:51;6.68;;;2.47;;
75645;SDS011;64237;52.438;13.240;2023-04-25T03:14:23;11.70;;;3.05;;
75645;SDS011;64237;52.438;13.240;2023-04-25T03:16:48;8.75;;;2.60;;
75645;SDS011;64237;52.438;13.240;2023-04-25T03:19:13;6.82;;;2.17;;
75645;SDS011;64237;52.438;13.240;2023-04-25T03:21:41;7.05;;;2.17;;
75645;SDS011;64237;52.438;13.240;2023-04-25T03:24:09;9.98;;;2.38;;
75645;SDS011;64237;52.438;13.240;2023-04-25T03:26:42;7.88;;;2.20;;
75645;SDS011;64237;52.438;13.240;2023-04-25T03:29:10;6.38;;;1.98;;
75645;SDS011;64237;52.438;13.240;2023-04-25T03:34:01;8.73;;;2.27;;
75645;SDS011;64237;52.438;13.240;2023-04-25T03:36:27;6.77;;;2.40;;
75645;SDS011;64237;52.438;13.240;2023-04-25T03:38:55;7.80;;;2.10;;
75645;SDS011;64237;52.438;13.240;2023-04-25T03:41:27;10.20;;;2.50;;
75645;SDS011;64237;52.438;13.240;2023-04-25T03:43:55;6.68;;;2.17;;
75645;SDS011;64237;52.438;13.240;2023-04-25T03:46:24;6.07;;;2.17;;
75645;SDS011;64237;52.438;13.240;2023-04-25T03:48:49;8.38;;;2.70;;
75645;SDS011;64237;52.438;13.240;2023-04-25T03:51:20;5.85;;;2.60;;
75645;SDS011;64237;52.438;13.240;2023-04-25T03:53:46;7.20;;;2.20;;
75645;SDS011;64237;52.438;13.240;2023-04-25T03:56:11;6.33;;;2.33;;
75645;SDS011;64237;52.438;13.240;2023-04-25T03:58:36;9.93;;;2.30;;
75645;SDS011;64237;52.438;13.240;2023-04-25T04:01:05;6.82;;;2.55;;
75645;SDS011;64237;52.438;13.240;2023-04-25T04:03:35;5.65;;;2.08;;
75645;SDS011;64237;52.438;13.240;2023-04-25T04:06:04;8.93;;;2.00;;
75645;SDS011;64237;52.438;13.240;2023-04-25T04:08:42;10.35;;;2.53;;
75645;SDS011;64237;52.438;13.240;2023-04-25T04:11:08;10.13;;;2.47;;
75645;SDS011;64237;52.438;13.240;2023-04-25T04:13:40;8.25;;;2.58;;
75645;SDS011;64237;52.438;13.240;2023-04-25T04:16:05;9.38;;;2.10;;
75645;SDS011;64237;52.438;13.240;2023-04-25T04:18:49;9.02;;;2.17;;
75645;SDS011;64237;52.438;13.240;2023-04-25T04:21:23;9.05;;;2.72;;
75645;SDS011;64237;52.438;13.240;2023-04-25T04:23:49;10.27;;;2.60;;
75645;SDS011;64237;52.438;13.240;2023-04-25T04:26:14;6.23;;;2.23;;
75645;SDS011;64237;52.438;13.240;2023-04-25T04:28:50;6.18;;;2.03;;
75645;SDS011;64237;52.438;13.240;2023-04-25T04:31:15;7.25;;;2.20;;
75645;SDS011;64237;52.438;13.240;2023-04-25T04:33:46;8.80;;;2.33;;
75645;SDS011;64237;52.438;13.240;2023-04-25T04:36:11;5.78;;;2.10;;
75645;SDS011;64237;52.438;13.240;2023-04-25T04:38:46;8.65;;;2.67;;
75645;SDS011;64237;52.438;13.240;2023-04-25T04:41:17;8.20;;;2.10;;
75645;SDS011;64237;52.438;13.240;2023-04-25T04:43:44;6.93;;;2.60;;
75645;SDS011;64237;52.438;13.240;2023-04-25T04:46:22;8.65;;;2.33;;
75645;SDS011;64237;52.438;13.240;2023-04-25T04:48:50;10.02;;;2.25;;
75645;SDS011;64237;52.438;13.240;2023-04-25T04:51:19;7.15;;;2.10;;
75645;SDS011;64237;52.438;13.240;2023-04-25T04:56:13;5.90;;;2.05;;
75645;SDS011;64237;52.438;13.240;2023-04-25T04:58:57;5.22;;;1.90;;
75645;SDS011;64237;52.438;13.240;2023-04-25T05:01:26;9.57;;;2.58;;
75645;SDS011;64237;52.438;13.240;2023-04-25T05:03:52;7.95;;;2.50;;
75645;SDS011;64237;52.438;13.240;2023-04-25T05:06:23;7.10;;;2.38;;
75645;SDS011;64237;52.438;13.240;2023-04-25T05:08:55;7.93;;;2.20;;
75645;SDS011;64237;52.438;13.240;2023-04-25T05:11:22;8.55;;;2.30;;
75645;SDS011;64237;52.438;13.240;2023-04-25T05:13:53;6.28;;;2.45;;
75645;SDS011;64237;52.438;13.240;2023-04-25T05:16:19;7.00;;;2.65;;
75645;SDS011;64237;52.438;13.240;2023-04-25T05:18:45;7.13;;;2.38;;
75645;SDS011;64237;52.438;13.240;2023-04-25T05:21:11;7.93;;;2.63;;
75645;SDS011;64237;52.438;13.240;2023-04-25T05:23:43;7.37;;;2.37;;
75645;SDS011;64237;52.438;13.240;2023-04-25T05:26:17;6.95;;;2.25;;
75645;SDS011;64237;52.438;13.240;2023-04-25T05:28:43;13.10;;;3.05;;
75645;SDS011;64237;52.438;13.240;2023-04-25T05:31:11;8.02;;;2.40;;
75645;SDS011;64237;52.438;13.240;2023-04-25T05:33:37;7.25;;;2.50;;
75645;SDS011;64237;52.438;13.240;2023-04-25T05:36:02;9.10;;;2.58;;
75645;SDS011;64237;52.438;13.240;2023-04-25T05:38:31;7.82;;;2.47;;
75645;SDS011;64237;52.438;13.240;2023-04-25T05:40:56;8.48;;;2.70;;
75645;SDS011;64237;52.438;13.240;2023-04-25T05:43:22;7.68;;;2.55;;
75645;SDS011;64237;52.438;13.240;2023-04-25T05:45:50;9.65;;;2.45;;
75645;SDS011;64237;52.438;13.240;2023-04-25T05:48:18;6.25;;;2.47;;
75645;SDS011;64237;52.438;13.240;2023-04-25T05:50:50;7.95;;;2.60;;
75645;SDS011;64237;52.438;13.240;2023-04-25T05:53:19;10.93;;;2.88;;
75645;SDS011;64237;52.438;13.240;2023-04-25T05:55:46;10.48;;;2.70;;
75645;SDS011;64237;52.438;13.240;2023-04-25T05:58:11;10.35;;;2.92;;
75645;SDS011;64237;52.438;13.240;2023-04-25T06:00:40;11.13;;;3.03;;
75645;SDS011;64237;52.438;13.240;2023-04-25T06:03:06;6.22;;;2.35;;
75645;SDS011;64237;52.438;13.240;2023-04-25T06:05:34;10.60;;;2.85;;
75645;SDS011;64237;52.438;13.240;2023-04-25T06:08:02;5.82;;;2.22;;
75645;SDS011;64237;52.438;13.240;2023-04-25T06:10:34;12.32;;;3.15;;
75645;SDS011;64237;52.438;13.240;2023-04-25T06:13:03;9.93;;;2.70;;
75645;SDS011;64237;52.438;13.240;2023-04-25T06:15:38;7.25;;;2.97;;
75645;SDS011;64237;52.438;13.240;2023-04-25T06:18:03;7.93;;;2.65;;
75645;SDS011;64237;52.438;13.240;2023-04-25T06:20:32;7.93;;;2.65;;
75645;SDS011;64237;52.438;13.240;2023-04-25T06:23:00;7.63;;;2.80;;
75645;SDS011;64237;52.438;13.240;2023-04-25T06:25:29;8.18;;;2.35;;
75645;SDS011;64237;52.438;13.240;2023-04-25T06:27:57;8.85;;;2.78;;
75645;SDS011;64237;52.438;13.240;2023-04-25T06:30:25;8.70;;;3.03;;
75645;SDS011;64237;52.438;13.240;2023-04-25T06:32:51;7.43;;;2.58;;
75645;SDS011;64237;52.438;13.240;2023-04-25T06:35:18;9.23;;;2.58;;
75645;SDS011;64237;52.438;13.240;2023-04-25T06:37:46;7.18;;;2.70;;
75645;SDS011;64237;52.438;13.240;2023-04-25T06:40:12;9.98;;;3.28;;
75645;SDS011;64237;52.438;13.240;2023-04-25T06:42:37;11.27;;;2.63;;
75645;SDS011;64237;52.438;13.240;2023-04-25T06:45:02;9.43;;;3.00;;
75645;SDS011;64237;52.438;13.240;2023-04-25T06:47:31;6.13;;;2.15;;
75645;SDS011;64237;52.438;13.240;2023-04-25T06:49:59;8.30;;;2.50;;
75645;SDS011;64237;52.438;13.240;2023-04-25T06:52:27;5.72;;;2.22;;
75645;SDS011;64237;52.438;13.240;2023-04-25T06:54:53;9.23;;;2.88;;
75645;SDS011;64237;52.438;13.240;2023-04-25T06:57:18;7.53;;;2.23;;
75645;SDS011;64237;52.438;13.240;2023-04-25T06:59:53;6.65;;;2.28;;
75645;SDS011;64237;52.438;13.240;2023-04-25T07:02:18;8.23;;;2.55;;
75645;SDS011;64237;52.438;13.240;2023-04-25T07:04:46;8.43;;;2.53;;
75645;SDS011;64237;52.438;13.240;2023-04-25T07:07:15;6.18;;;2.17;;
75645;SDS011;64237;52.438;13.240;2023-04-25T07:09:49;11.45;;;2.40;;
75645;SDS011;64237;52.438;13.240;2023-04-25T07:12:24;7.72;;;2.53;;
75645;SDS011;64237;52.438;13.240;2023-04-25T07:14:49;7.50;;;2.55;;
75645;SDS011;64237;52.438;13.240;2023-04-25T07:17:20;7.88;;;2.20;;
75645;SDS011;64237;52.438;13.240;2023-04-25T07:19:46;7.50;;;2.50;;
75645;SDS011;64237;52.438;13.240;2023-04-25T07:22:11;6.53;;;2.50;;
75645;SDS011;64237;52.438;13.240;2023-04-25T07:24:49;7.13;;;2.23;;
75645;SDS011;64237;52.438;13.240;2023-04-25T07:27:16;9.45;;;2.53;;
75645;SDS011;64237;52.438;13.240;2023-04-25T07:29:41;10.93;;;2.50;;
75645;SDS011;64237;52.438;13.240;2023-04-25T07:32:07;9.13;;;2.22;;
75645;SDS011;64237;52.438;13.240;2023-04-25T07:34:38;12.27;;;2.13;;
75645;SDS011;64237;52.438;13.240;2023-04-25T07:37:07;6.28;;;2.00;;
75645;SDS011;64237;52.438;13.240;2023-04-25T07:39:35;10.35;;;2.28;;
75645;SDS011;64237;52.438;13.240;2023-04-25T07:42:04;9.50;;;2.80;;
75645;SDS011;64237;52.438;13.240;2023-04-25T07:44:32;9.18;;;2.28;;
75645;SDS011;64237;52.438;13.240;2023-04-25T07:47:09;9.80;;;2.30;;
75645;SDS011;64237;52.438;13.240;2023-04-25T07:49:35;7.72;;;2.40;;
75645;SDS011;64237;52.438;13.240;2023-04-25T07:52:02;14.10;;;2.33;;
75645;SDS011;64237;52.438;13.240;2023-04-25T07:54:29;7.53;;;2.45;;
75645;SDS011;64237;52.438;13.240;2023-04-25T07:57:00;11.13;;;2.40;;
75645;SDS011;64237;52.438;13.240;2023-04-25T07:59:39;11.30;;;2.17;;
75645;SDS011;64237;52.438;13.240;2023-04-25T08:02:10;9.25;;;2.28;;
75645;SDS011;64237;52.438;13.240;2023-04-25T08:04:36;11.75;;;2.50;;
75645;SDS011;64237;52.438;13.240;2023-04-25T08:07:01;7.63;;;2.33;;
75645;SDS011;64237;52.438;13.240;2023-04-25T08:09:29;7.70;;;2.10;;
75645;SDS011;64237;52.438;13.240;2023-04-25T08:12:02;14.10;;;2.40;;
75645;SDS011;64237;52.438;13.240;2023-04-25T08:14:28;12.85;;;1.85;;
75645;SDS011;64237;52.438;13.240;2023-04-25T08:17:02;8.90;;;1.65;;
75645;SDS011;64237;52.438;13.240;2023-04-25T08:19:28;11.63;;;2.20;;
75645;SDS011;64237;52.438;13.240;2023-04-25T08:21:55;11.18;;;2.45;;
75645;SDS011;64237;52.438;13.240;2023-04-25T08:24:21;6.70;;;1.55;;
75645;SDS011;64237;52.438;13.240;2023-04-25T08:26:52;10.88;;;2.10;;
75645;SDS011;64237;52.438;13.240;2023-04-25T08:29:18;8.18;;;1.85;;
75645;SDS011;64237;52.438;13.240;2023-04-25T08:31:44;8.48;;;2.20;;
75645;SDS011;64237;52.438;13.240;2023-04-25T08:34:12;10.70;;;1.60;;
75645;SDS011;64237;52.438;13.240;2023-04-25T08:36:38;7.35;;;1.95;;
75645;SDS011;64237;52.438;13.240;2023-04-25T08:39:03;8.82;;;1.90;;
75645;SDS011;64237;52.438;13.240;2023-04-25T08:41:29;13.83;;;1.73;;
75645;SDS011;64237;52.438;13.240;2023-04-25T08:43:57;10.93;;;1.70;;
75645;SDS011;64237;52.438;13.240;2023-04-25T08:46:27;13.98;;;2.33;;
75645;SDS011;64237;52.438;13.240;2023-04-25T08:48:56;14.32;;;2.15;;
75645;SDS011;64237;52.438;13.240;2023-04-25T08:51:31;12.93;;;2.13;;
75645;SDS011;64237;52.438;13.240;2023-04-25T08:53:59;9.73;;;1.92;;
75645;SDS011;64237;52.438;13.240;2023-04-25T08:56:37;9.00;;;1.63;;
75645;SDS011;64237;52.438;13.240;2023-04-25T08:59:05;9.57;;;2.00;;
75645;SDS011;64237;52.438;13.240;2023-04-25T09:01:33;9.85;;;2.03;;
75645;SDS011;64237;52.438;13.240;2023-04-25T09:04:01;13.38;;;1.50;;
75645;SDS011;64237;52.438;13.240;2023-04-25T09:06:30;11.98;;;2.33;;
75645;SDS011;64237;52.438;13.240;2023-04-25T09:09:06;11.85;;;1.85;;
75645;SDS011;64237;52.438;13.240;2023-04-25T09:11:33;9.25;;;1.48;;
75645;SDS011;64237;52.438;13.240;2023-04-25T09:14:20;8.18;;;1.60;;
75645;SDS011;64237;52.438;13.240;2023-04-25T09:19:24;8.88;;;1.45;;
75645;SDS011;64237;52.438;13.240;2023-04-25T09:22:01;8.15;;;1.63;;
75645;SDS011;64237;52.438;13.240;2023-04-25T09:24:35;5.75;;;2.08;;
75645;SDS011;64237;52.438;13.240;2023-04-25T09:29:33;12.57;;;1.92;;
75645;SDS011;64237;52.438;13.240;2023-04-25T09:37:16;12.40;;;1.85;;
75645;SDS011;64237;52.438;13.240;2023-04-25T09:39:44;10.68;;;1.92;;
75645;SDS011;64237;52.438;13.240;2023-04-25T09:42:11;11.60;;;2.33;;
75645;SDS011;64237;52.438;13.240;2023-04-25T09:44:36;9.82;;;1.80;;
75645;SDS011;64237;52.438;13.240;2023-04-25T09:47:01;10.43;;;1.92;;
75645;SDS011;64237;52.438;13.240;2023-04-25T09:49:27;6.07;;;1.40;;
75645;SDS011;64237;52.438;13.240;2023-04-25T09:51:54;10.45;;;1.50;;
75645;SDS011;64237;52.438;13.240;2023-04-25T09:54:24;9.00;;;1.48;;
75645;SDS011;64237;52.438;13.240;2023-04-25T09:56:53;9.23;;;1.65;;
75645;SDS011;64237;52.438;13.240;2023-04-25T09:59:19;8.85;;;1.67;;
75645;SDS011;64237;52.438;13.240;2023-04-25T10:01:48;7.70;;;1.70;;
75645;SDS011;64237;52.438;13.240;2023-04-25T10:04:16;10.90;;;2.10;;
75645;SDS011;64237;52.438;13.240;2023-04-25T10:06:45;11.82;;;1.55;;
75645;SDS011;64237;52.438;13.240;2023-04-25T10:09:14;11.32;;;2.08;;
75645;SDS011;64237;52.438;13.240;2023-04-25T10:11:40;4.95;;;1.33;;
75645;SDS011;64237;52.438;13.240;2023-04-25T10:14:05;10.52;;;2.42;;
75645;SDS011;64237;52.438;13.240;2023-04-25T10:16:31;6.20;;;1.77;;
75645;SDS011;64237;52.438;13.240;2023-04-25T10:18:57;7.95;;;1.58;;
75645;SDS011;64237;52.438;13.240;2023-04-25T10:21:22;11.02;;;1.50;;
75645;SDS011;64237;52.438;13.240;2023-04-25T10:23:49;10.75;;;2.05;;
75645;SDS011;64237;52.438;13.240;2023-04-25T10:26:15;8.43;;;1.30;;
75645;SDS011;64237;52.438;13.240;2023-04-25T10:29:00;9.13;;;1.88;;
75645;SDS011;64237;52.438;13.240;2023-04-25T10:31:28;11.45;;;1.65;;
75645;SDS011;64237;52.438;13.240;2023-04-25T10:33:56;9.32;;;1.42;;
75645;SDS011;64237;52.438;13.240;2023-04-25T10:36:22;5.90;;;1.17;;
75645;SDS011;64237;52.438;13.240;2023-04-25T10:38:49;5.72;;;1.45;;
75645;SDS011;64237;52.438;13.240;2023-04-25T10:41:17;6.30;;;1.50;;
75645;SDS011;64237;52.438;13.240;2023-04-25T10:43:44;12.13;;;2.30;;
75645;SDS011;64237;52.438;13.240;2023-04-25T10:56:19;9.48;;;1.35;;
75645;SDS011;64237;52.438;13.240;2023-04-25T10:58:48;10.43;;;1.85;;
75645;SDS011;64237;52.438;13.240;2023-04-25T11:01:14;5.95;;;1.42;;
75645;SDS011;64237;52.438;13.240;2023-04-25T11:03:44;6.63;;;1.38;;
75645;SDS011;64237;52.438;13.240;2023-04-25T11:06:15;7.00;;;1.50;;
75645;SDS011;64237;52.438;13.240;2023-04-25T11:09:12;8.48;;;1.83;;
75645;SDS011;64237;52.438;13.240;2023-04-25T11:11:38;7.22;;;1.30;;
75645;SDS011;64237;52.438;13.240;2023-04-25T11:14:04;5.60;;;1.27;;
75645;SDS011;64237;52.438;13.240;2023-04-25T11:16:29;6.95;;;1.17;;
75645;SDS011;64237;52.438;13.240;2023-04-25T11:18:56;4.50;;;1.30;;
75645;SDS011;64237;52.438;13.240;2023-04-25T11:21:22;9.32;;;1.60;;
75645;SDS011;64237;52.438;13.240;2023-04-25T11:23:48;12.13;;;1.63;;
75645;SDS011;64237;52.438;13.240;2023-04-25T11:26:13;6.10;;;1.25;;
75645;SDS011;64237;52.438;13.240;2023-04-25T11:28:40;9.68;;;1.50;;
75645;SDS011;64237;52.438;13.240;2023-04-25T11:31:05;5.00;;;0.93;;
75645;SDS011;64237;52.438;13.240;2023-04-25T11:33:30;9.15;;;1.50;;
75645;SDS011;64237;52.438;13.240;2023-04-25T11:35:56;4.35;;;1.17;;
75645;SDS011;64237;52.438;13.240;2023-04-25T11:38:22;4.32;;;1.50;;
75645;SDS011;64237;52.438;13.240;2023-04-25T11:40:52;9.38;;;1.30;;
75645;SDS011;64237;52.438;13.240;2023-04-25T11:43:20;5.57;;;1.20;;
75645;SDS011;64237;52.438;13.240;2023-04-25T11:45:47;8.13;;;1.05;;
75645;SDS011;64237;52.438;13.240;2023-04-25T11:48:13;9.13;;;1.88;;
75645;SDS011;64237;52.438;13.240;2023-04-25T11:50:39;5.35;;;1.30;;
75645;SDS011;64237;52.438;13.240;2023-04-25T11:53:04;4.35;;;1.40;;
75645;SDS011;64237;52.438;13.240;2023-04-25T11:55:31;4.72;;;0.90;;
75645;SDS011;64237;52.438;13.240;2023-04-25T11:57:58;6.88;;;1.10;;
75645;SDS011;64237;52.438;13.240;2023-04-25T12:00:25;6.65;;;1.23;;
75645;SDS011;64237;52.438;13.240;2023-04-25T12:02:54;4.78;;;1.05;;
75645;SDS011;64237;52.438;13.240;2023-04-25T12:05:24;5.60;;;1.20;;
75645;SDS011;64237;52.438;13.240;2023-04-25T12:07:50;9.15;;;1.40;;
75645;SDS011;64237;52.438;13.240;2023-04-25T12:10:16;6.22;;;1.15;;
75645;SDS011;64237;52.438;13.240;2023-04-25T12:12:44;6.97;;;1.33;;
75645;SDS011;64237;52.438;13.240;2023-04-25T12:15:15;2.78;;;1.00;;
75645;SDS011;64237;52.438;13.240;2023-04-25T12:17:51;5.60;;;1.23;;
75645;SDS011;64237;52.438;13.240;2023-04-25T12:20:19;5.15;;;1.13;;
75645;SDS011;64237;52.438;13.240;2023-04-25T12:22:48;5.75;;;0.90;;
75645;SDS011;64237;52.438;13.240;2023-04-25T12:25:34;5.20;;;1.30;;
75645;SDS011;64237;52.438;13.240;2023-04-25T12:33:18;6.13;;;1.02;;
75645;SDS011;64237;52.438;13.240;2023-04-25T12:35:43;5.40;;;1.17;;
75645;SDS011;64237;52.438;13.240;2023-04-25T12:38:09;5.78;;;1.40;;
75645;SDS011;64237;52.438;13.240;2023-04-25T12:40:35;5.55;;;1.30;;
75645;SDS011;64237;52.438;13.240;2023-04-25T12:43:01;5.97;;;1.20;;
75645;SDS011;64237;52.438;13.240;2023-04-25T12:45:26;6.72;;;1.17;;
75645;SDS011;64237;52.438;13.240;2023-04-25T12:47:51;6.13;;;1.05;;
75645;SDS011;64237;52.438;13.240;2023-04-25T12:50:16;9.43;;;1.60;;
75645;SDS011;64237;52.438;13.240;2023-04-25T12:52:42;3.00;;;0.87;;
75645;SDS011;64237;52.438;13.240;2023-04-25T12:55:07;6.40;;;1.23;;
75645;SDS011;64237;52.438;13.240;2023-04-25T12:57:33;7.60;;;1.13;;
75645;SDS011;64237;52.438;13.240;2023-04-25T12:59:58;4.70;;;1.10;;
75645;SDS011;64237;52.438;13.240;2023-04-25T13:02:23;6.17;;;1.53;;
75645;SDS011;64237;52.438;13.240;2023-04-25T13:04:49;5.63;;;0.95;;
75645;SDS011;64237;52.438;13.240;2023-04-25T13:07:14;7.07;;;1.10;;
75645;SDS011;64237;52.438;13.240;2023-04-25T13:09:40;5.50;;;1.17;;
75645;SDS011;64237;52.438;13.240;2023-04-25T13:12:06;5.78;;;1.00;;
75645;SDS011;64237;52.438;13.240;2023-04-25T13:14:32;5.00;;;1.13;;
75645;SDS011;64237;52.438;13.240;2023-04-25T13:16:57;7.07;;;1.35;;
75645;SDS011;64237;52.438;13.240;2023-04-25T13:19:23;7.07;;;1.15;;
75645;SDS011;64237;52.438;13.240;2023-04-25T13:21:48;4.18;;;1.45;;
75645;SDS011;64237;52.438;13.240;2023-04-25T13:24:14;5.43;;;1.20;;
75645;SDS011;64237;52.438;13.240;2023-04-25T13:26:39;5.40;;;1.20;;
75645;SDS011;64237;52.438;13.240;2023-04-25T13:29:07;4.15;;;1.00;;
75645;SDS011;64237;52.438;13.240;2023-04-25T13:31:32;4.63;;;1.00;;
75645;SDS011;64237;52.438;13.240;2023-04-25T13:33:57;2.65;;;0.90;;
75645;SDS011;64237;52.438;13.240;2023-04-25T13:36:23;6.45;;;1.20;;
75645;SDS011;64237;52.438;13.240;2023-04-25T13:38:49;4.53;;;1.17;;
75645;SDS011;64237;52.438;13.240;2023-04-25T13:41:14;6.10;;;1.50;;
75645;SDS011;64237;52.438;13.240;2023-04-25T13:43:43;1.60;;;0.80;;
75645;SDS011;64237;52.438;13.240;2023-04-25T13:46:09;5.63;;;1.35;;
75645;SDS011;64237;52.438;13.240;2023-04-25T13:48:36;6.63;;;1.52;;
75645;SDS011;64237;52.438;13.240;2023-04-25T13:51:02;5.80;;;1.23;;
75645;SDS011;64237;52.438;13.240;2023-04-25T13:53:27;9.45;;;2.17;;
75645;SDS011;64237;52.438;13.240;2023-04-25T13:55:52;7.50;;;1.30;;
75645;SDS011;64237;52.438;13.240;2023-04-25T13:58:18;4.15;;;1.42;;
75645;SDS011;64237;52.438;13.240;2023-04-25T14:00:45;7.45;;;1.27;;
75645;SDS011;64237;52.438;13.240;2023-04-25T14:03:11;5.63;;;1.20;;
75645;SDS011;64237;52.438;13.240;2023-04-25T14:05:37;7.03;;;1.25;;
75645;SDS011;64237;52.438;13.240;2023-04-25T14:08:06;5.60;;;1.30;;
75645;SDS011;64237;52.438;13.240;2023-04-25T14:10:32;3.38;;;1.10;;
75645;SDS011;64237;52.438;13.240;2023-04-25T14:12:58;4.70;;;1.48;;
75645;SDS011;64237;52.438;13.240;2023-04-25T14:15:24;5.68;;;1.25;;
75645;SDS011;64237;52.438;13.240;2023-04-25T14:17:50;6.38;;;1.17;;
75645;SDS011;64237;52.438;13.240;2023-04-25T14:20:15;8.60;;;1.40;;
75645;SDS011;64237;52.438;13.240;2023-04-25T14:22:45;3.83;;;1.23;;
75645;SDS011;64237;52.438;13.240;2023-04-25T14:25:10;7.53;;;1.27;;
75645;SDS011;64237;52.438;13.240;2023-04-25T14:27:36;5.57;;;1.25;;
75645;SDS011;64237;52.438;13.240;2023-04-25T14:30:01;4.00;;;1.15;;
75645;SDS011;64237;52.438;13.240;2023-04-25T14:32:26;3.05;;;1.00;;
75645;SDS011;64237;52.438;13.240;2023-04-25T14:34:52;6.97;;;1.50;;
75645;SDS011;64237;52.438;13.240;2023-04-25T14:37:17;7.38;;;1.30;;
75645;SDS011;64237;52.438;13.240;2023-04-25T14:39:42;7.15;;;1.33;;
75645;SDS011;64237;52.438;13.240;2023-04-25T14:42:08;3.90;;;1.20;;
75645;SDS011;64237;52.438;13.240;2023-04-25T14:44:33;5.63;;;1.20;;
75645;SDS011;64237;52.438;13.240;2023-04-25T14:46:59;6.90;;;1.38;;
75645;SDS011;64237;52.438;13.240;2023-04-25T14:49:24;7.57;;;1.17;;
75645;SDS011;64237;52.438;13.240;2023-04-25T14:51:50;5.65;;;1.27;;
75645;SDS011;64237;52.438;13.240;2023-04-25T14:54:16;7.65;;;1.30;;
75645;SDS011;64237;52.438;13.240;2023-04-25T14:56:42;6.18;;;1.10;;
75645;SDS011;64237;52.438;13.240;2023-04-25T14:59:10;4.93;;;1.13;;
75645;SDS011;64237;52.438;13.240;2023-04-25T15:01:42;7.55;;;1.50;;
75645;SDS011;64237;52.438;13.240;2023-04-25T15:04:10;5.47;;;1.10;;
75645;SDS011;64237;52.438;13.240;2023-04-25T15:06:37;5.97;;;1.20;;
75645;SDS011;64237;52.438;13.240;2023-04-25T15:09:03;4.47;;;1.60;;